Widefield, Colorado
Current Conditions -  °F | °C
As of 5:54 PM on Tuesday 21 Oct 2014 (Local Time) from KCOS Reporting Station
Broken Clouds Broken Clouds  
Wind Chill: 64°   Ceiling: 23000
Heat Index: 64°   Visibility: 10mi
Dew Point: 35°   Wind: 7mph
Humidity: 34%   Direction: 200°SSW
Pressure: 29.99"   Gusts: NA
Location:  38.7481°N, 104.708°W
Report Text: KCOS 212354Z 20006KT 10SM SCT090 BKN230 18/02 A2999 RMK AO2 SLP115 T01780017 10217 20178 58008
Loading
Personal Weather Stations






























Interactive Weather Map
Tropical Storm Tracking
New forecast layout! Learn more

10-Day Weather Forecast

Advertisements
Track Severe Weather on mobile